Time;durP1;ratioP1;P1;durP2;ratioP2;P2;SDS_P1;SDS_P2;PMS_P1;PMS_P2;Temp;Humidity;BMP_temperature;BMP_pressure;BME280_temperature;BME280_humidity;BME280_pressure;Samples;Min_cycle;Max_cycle;Signal;HPM_P1;HPM_P2
2021/12/02 00:01:15;;;;;;;211.53;100.03;;;;;;;1.81;100.00;94321.53;5125282;27;20891;-83
2021/12/02 00:03:44;;;;;;;207.63;103.83;;;;;;;1.81;100.00;94323.31;5120200;27;20230;-76
2021/12/02 00:06:15;;;;;;;206.20;98.40;;;;;;;1.71;100.00;94331.22;5129617;27;20196;-78
2021/12/02 00:08:44;;;;;;;186.17;90.37;;;;;;;1.47;100.00;94333.97;5129872;27;20268;-77
2021/12/02 00:11:13;;;;;;;177.37;80.80;;;;;;;1.41;100.00;94348.25;5129840;27;20326;-78
2021/12/02 00:13:53;;;;;;;171.37;76.90;;;;;;;1.41;100.00;94342.34;5125907;27;20289;-77
2021/12/02 00:16:27;;;;;;;153.07;67.43;;;;;;;1.35;100.00;94336.13;5126514;27;20213;-77
2021/12/02 00:21:45;;;;;;;131.77;57.67;;;;;;;1.18;100.00;94344.88;5124836;27;20281;-77
2021/12/02 00:24:19;;;;;;;140.93;61.33;;;;;;;1.25;100.00;94348.34;5126418;27;20203;-75
2021/12/02 00:26:51;;;;;;;141.03;64.60;;;;;;;1.31;100.00;94339.97;5125251;27;20229;-77
2021/12/02 00:29:23;;;;;;;157.67;73.60;;;;;;;1.36;100.00;94349.69;5129293;27;20199;-78
2021/12/02 00:31:53;;;;;;;135.33;63.43;;;;;;;1.30;100.00;94351.16;5124212;27;20244;-77
2021/12/02 00:34:22;;;;;;;130.93;63.83;;;;;;;1.24;100.00;94349.28;5130435;27;20205;-77
2021/12/02 00:36:51;;;;;;;147.03;65.07;;;;;;;1.37;100.00;94358.97;5122526;27;20276;-77
2021/12/02 00:39:21;;;;;;;150.40;67.47;;;;;;;1.42;100.00;94360.06;5130770;27;20260;-77
2021/12/02 00:41:50;;;;;;;142.90;65.30;;;;;;;1.49;100.00;94348.19;5125360;27;20208;-76
2021/12/02 00:44:21;;;;;;;155.23;72.00;;;;;;;1.52;100.00;94349.63;5125409;27;20240;-77
2021/12/02 00:46:52;;;;;;;125.00;56.10;;;;;;;1.50;100.00;94347.22;5126158;27;20214;-77
2021/12/02 00:49:21;;;;;;;136.37;61.23;;;;;;;1.46;100.00;94345.16;5127531;27;20266;-76
2021/12/02 00:51:57;;;;;;;125.50;58.93;;;;;;;1.51;100.00;94335.22;5130250;27;20249;-76
2021/12/02 00:54:27;;;;;;;121.17;58.70;;;;;;;1.53;100.00;94328.94;5126747;27;20572;-76
2021/12/02 00:56:57;;;;;;;118.73;55.80;;;;;;;1.50;100.00;94334.41;5124778;27;20678;-76
2021/12/02 00:59:30;;;;;;;112.30;52.93;;;;;;;1.44;100.00;94339.44;5122987;27;20281;-76
2021/12/02 01:01:59;;;;;;;115.13;52.03;;;;;;;1.39;100.00;94345.03;5128612;27;20259;-76
2021/12/02 01:04:28;;;;;;;124.10;56.27;;;;;;;1.49;100.00;94337.94;5125243;27;20203;-76
2021/12/02 01:06:58;;;;;;;114.43;55.17;;;;;;;1.51;100.00;94363.38;5127830;27;20204;-77
2021/12/02 01:09:26;;;;;;;127.53;57.67;;;;;;;1.49;100.00;94360.19;5126809;27;20283;-77
2021/12/02 01:11:56;;;;;;;118.03;55.37;;;;;;;1.44;100.00;94347.09;5122420;27;21164;-75
2021/12/02 01:14:25;;;;;;;125.17;54.97;;;;;;;1.42;100.00;94354.94;5119244;27;20236;-81
2021/12/02 01:16:55;;;;;;;127.30;57.97;;;;;;;1.47;100.00;94354.44;5123403;27;20577;-82
2021/12/02 01:19:23;;;;;;;118.80;55.30;;;;;;;1.31;100.00;94332.31;5120963;27;20563;-82
2021/12/02 01:21:53;;;;;;;106.80;48.97;;;;;;;1.18;100.00;94341.50;5129594;27;20670;-82
2021/12/02 01:24:22;;;;;;;103.50;48.37;;;;;;;1.19;100.00;94337.97;5123004;27;20642;-80
2021/12/02 01:26:54;;;;;;;95.43;43.47;;;;;;;1.21;100.00;94349.66;5118334;27;20257;-81
2021/12/02 01:29:26;;;;;;;88.97;43.07;;;;;;;1.24;100.00;94349.28;5132449;27;20207;-81
2021/12/02 01:32:01;;;;;;;83.60;41.47;;;;;;;1.19;100.00;94359.22;5123914;27;21043;-81
2021/12/02 01:34:30;;;;;;;90.10;41.50;;;;;;;1.22;100.00;94353.78;5127623;27;20336;-81
2021/12/02 01:36:59;;;;;;;80.77;41.27;;;;;;;1.31;100.00;94352.78;5126270;27;20208;-81
2021/12/02 01:39:28;;;;;;;89.17;43.53;;;;;;;1.34;100.00;94360.13;5126695;27;20208;-79
2021/12/02 01:41:58;;;;;;;92.17;42.93;;;;;;;1.42;100.00;94359.25;5114787;27;20213;-80
2021/12/02 01:44:31;;;;;;;95.67;43.60;;;;;;;1.45;100.00;94349.50;5131323;27;20232;-80
2021/12/02 01:47:02;;;;;;;86.50;42.27;;;;;;;1.39;100.00;94336.56;5131328;27;20264;-79
2021/12/02 01:49:35;;;;;;;98.20;44.40;;;;;;;1.44;100.00;94347.09;5117067;27;20233;-79
2021/12/02 01:52:10;;;;;;;86.33;42.13;;;;;;;1.33;100.00;94339.81;5128763;27;20211;-80
2021/12/02 01:54:44;;;;;;;89.10;43.33;;;;;;;1.23;100.00;94340.03;5126242;27;20822;-75
2021/12/02 01:57:30;;;;;;;102.20;47.40;;;;;;;1.21;100.00;94330.94;5127677;27;20265;-75
2021/12/02 02:00:10;;;;;;;95.00;43.50;;;;;;;1.23;100.00;94326.44;5123720;27;20205;-76
2021/12/02 02:02:41;;;;;;;90.23;41.47;;;;;;;1.17;100.00;94324.56;5122688;27;20702;-76
2021/12/02 02:05:12;;;;;;;85.10;41.93;;;;;;;1.21;100.00;94300.22;5124316;27;20200;-76
2021/12/02 02:07:55;;;;;;;85.90;42.50;;;;;;;1.28;100.00;94303.69;5128804;27;20227;-76
2021/12/02 02:10:23;;;;;;;69.67;34.73;;;;;;;1.21;100.00;94295.13;5127883;27;20191;-75
2021/12/02 02:12:52;;;;;;;56.53;26.97;;;;;;;1.11;100.00;94305.56;5118303;27;20857;-76
2021/12/02 02:15:21;;;;;;;51.37;26.40;;;;;;;1.09;100.00;94284.47;5129339;27;20356;-76
2021/12/02 02:17:55;;;;;;;48.17;26.60;;;;;;;1.29;100.00;94303.53;5125701;27;21312;-76
2021/12/02 02:20:27;;;;;;;48.73;25.50;;;;;;;1.32;100.00;94294.72;5124572;27;20287;-75
2021/12/02 02:22:56;;;;;;;53.80;27.80;;;;;;;1.38;100.00;94292.28;5128079;27;20207;-75
2021/12/02 02:25:25;;;;;;;49.77;25.77;;;;;;;1.19;100.00;94310.63;5125958;27;20676;-76
2021/12/02 02:27:53;;;;;;;64.30;30.87;;;;;;;1.19;100.00;94300.38;5125869;27;20235;-75
2021/12/02 02:30:23;;;;;;;65.80;33.17;;;;;;;1.22;100.00;94306.94;5123588;27;20731;-75
2021/12/02 02:32:51;;;;;;;63.60;32.30;;;;;;;1.28;100.00;94308.81;5126447;27;20199;-75
2021/12/02 02:35:19;;;;;;;64.70;33.40;;;;;;;1.33;100.00;94315.00;5123369;27;20208;-76
2021/12/02 02:37:51;;;;;;;65.13;33.50;;;;;;;1.38;100.00;94310.19;5128242;27;20205;-77
2021/12/02 02:40:19;;;;;;;63.80;34.40;;;;;;;1.34;100.00;94301.25;5124775;27;20204;-75
2021/12/02 02:42:49;;;;;;;67.93;35.07;;;;;;;1.51;100.00;94312.97;5126788;27;20204;-76
2021/12/02 02:45:18;;;;;;;67.03;35.00;;;;;;;1.55;100.00;94313.44;5127856;27;20297;-76
2021/12/02 02:47:46;;;;;;;70.57;34.80;;;;;;;1.56;100.00;94308.13;5126476;27;20223;-76
2021/12/02 02:50:15;;;;;;;59.60;31.00;;;;;;;1.50;100.00;94308.03;5121728;27;20208;-75
2021/12/02 02:52:44;;;;;;;62.13;31.17;;;;;;;1.48;100.00;94318.44;5128910;27;20199;-75
2021/12/02 02:55:18;;;;;;;61.97;31.80;;;;;;;1.52;100.00;94327.38;5127429;27;20202;-75
2021/12/02 02:57:56;;;;;;;63.97;32.03;;;;;;;1.52;100.00;94311.22;5122364;27;20317;-74
2021/12/02 03:00:30;;;;;;;55.07;30.57;;;;;;;1.47;100.00;94303.25;5125734;27;20211;-76
2021/12/02 03:03:13;;;;;;;57.37;30.17;;;;;;;1.49;100.00;94304.66;5120669;27;20227;-76
2021/12/02 03:05:53;;;;;;;58.23;30.07;;;;;;;1.50;100.00;94306.25;5124989;27;20199;-74
2021/12/02 03:08:30;;;;;;;65.37;32.50;;;;;;;1.52;100.00;94288.97;5122819;27;20697;-74
2021/12/02 03:11:01;;;;;;;61.93;31.77;;;;;;;1.50;100.00;94292.69;5127554;27;20200;-76
2021/12/02 03:13:39;;;;;;;62.20;31.40;;;;;;;1.42;100.00;94298.63;5123116;27;20682;-76
2021/12/02 03:18:53;;;;;;;62.57;32.13;;;;;;;1.29;100.00;94283.06;5122835;27;20306;-75
2021/12/02 03:21:22;;;;;;;54.83;30.37;;;;;;;1.24;100.00;94287.09;5124774;27;20203;-75
2021/12/02 03:23:51;;;;;;;64.43;31.13;;;;;;;1.20;100.00;94278.16;5121584;27;20218;-74
2021/12/02 03:26:22;;;;;;;58.00;30.33;;;;;;;1.24;100.00;94295.53;5128969;27;20207;-75
2021/12/02 03:28:51;;;;;;;51.40;28.57;;;;;;;1.22;100.00;94302.59;5125947;28;20285;-75
2021/12/02 03:31:19;;;;;;;59.50;32.40;;;;;;;1.12;100.00;94279.81;5127196;28;20674;-74
2021/12/02 03:33:49;;;;;;;63.40;32.30;;;;;;;1.27;100.00;94295.22;5123518;28;20222;-75
2021/12/02 03:36:18;;;;;;;65.10;33.17;;;;;;;1.33;100.00;94294.53;5123286;28;20283;-75
2021/12/02 03:38:46;;;;;;;58.37;30.13;;;;;;;1.32;100.00;94295.53;5125197;28;20201;-74
2021/12/02 03:41:16;;;;;;;62.97;29.97;;;;;;;1.23;100.00;94285.50;5124129;28;20221;-75
2021/12/02 03:43:48;;;;;;;62.30;33.60;;;;;;;1.07;100.00;94253.94;5119228;28;20200;-75
2021/12/02 03:46:17;;;;;;;72.23;36.07;;;;;;;1.27;100.00;94277.28;5126185;28;20209;-76
2021/12/02 03:48:46;;;;;;;70.27;35.37;;;;;;;1.22;100.00;94287.25;5127027;28;20306;-76
2021/12/02 03:51:14;;;;;;;71.47;34.73;;;;;;;1.23;100.00;94286.31;5128535;28;20291;-74
2021/12/02 03:53:43;;;;;;;67.20;34.60;;;;;;;1.25;100.00;94289.47;5120057;28;20210;-75
2021/12/02 03:56:13;;;;;;;61.53;32.13;;;;;;;1.19;100.00;94285.03;5123330;28;20662;-75
2021/12/02 03:58:44;;;;;;;76.83;35.70;;;;;;;1.22;100.00;94292.38;5117103;28;20199;-75
2021/12/02 04:01:16;;;;;;;74.00;36.23;;;;;;;1.23;100.00;94273.50;5127993;28;20260;-76
2021/12/02 04:03:45;;;;;;;76.40;37.57;;;;;;;1.28;100.00;94281.47;5126766;28;20195;-76
2021/12/02 04:06:14;;;;;;;78.23;38.50;;;;;;;1.29;100.00;94272.81;5128481;28;20264;-76
2021/12/02 04:08:45;;;;;;;84.93;43.50;;;;;;;1.32;100.00;94276.81;5122799;28;20208;-76
2021/12/02 04:11:27;;;;;;;98.33;49.00;;;;;;;1.33;100.00;94273.28;5125930;28;20206;-70
2021/12/02 04:14:06;;;;;;;93.20;46.60;;;;;;;1.31;100.00;94264.97;5126664;28;20701;-70
2021/12/02 04:16:39;;;;;;;90.87;45.77;;;;;;;1.28;100.00;94272.97;5123721;28;20278;-70
2021/12/02 04:19:11;;;;;;;115.37;57.50;;;;;;;1.29;100.00;94264.34;5124921;28;20196;-70
2021/12/02 04:21:40;;;;;;;108.30;53.97;;;;;;;1.24;100.00;94267.41;5127651;28;20201;-70
2021/12/02 04:24:08;;;;;;;105.07;54.07;;;;;;;1.17;100.00;94273.38;5128058;27;20226;-70
2021/12/02 04:26:36;;;;;;;127.27;63.53;;;;;;;0.99;100.00;94276.22;5121777;28;20204;-71
2021/12/02 04:29:04;;;;;;;140.70;66.50;;;;;;;0.89;100.00;94276.44;5123649;28;20224;-73
2021/12/02 04:31:31;;;;;;;119.13;59.87;;;;;;;0.73;100.00;94278.28;5124471;28;20248;-73
2021/12/02 04:34:00;;;;;;;92.63;46.00;;;;;;;0.63;100.00;94260.59;5123962;28;20207;-71
2021/12/02 04:36:27;;;;;;;97.97;51.43;;;;;;;0.69;100.00;94261.69;5126707;27;20199;-71
2021/12/02 04:38:54;;;;;;;111.40;52.10;;;;;;;0.77;100.00;94256.53;5129071;27;20211;-71
2021/12/02 04:41:21;;;;;;;89.83;46.53;;;;;;;0.84;100.00;94255.66;5112223;27;20200;-73
2021/12/02 04:43:50;;;;;;;105.57;51.10;;;;;;;0.90;100.00;94267.78;5132223;27;20199;-71
2021/12/02 04:46:17;;;;;;;104.83;49.97;;;;;;;0.87;100.00;94257.09;5132653;27;20256;-71
2021/12/02 04:48:45;;;;;;;104.57;52.07;;;;;;;0.92;100.00;94263.31;5133269;27;20226;-70
2021/12/02 04:51:14;;;;;;;107.10;51.83;;;;;;;0.89;100.00;94257.75;5132832;27;20199;-71
2021/12/02 04:53:42;;;;;;;99.23;48.63;;;;;;;0.92;100.00;94257.41;5132252;27;20211;-72
2021/12/02 04:56:11;;;;;;;97.27;46.47;;;;;;;0.93;100.00;94259.78;5132732;27;20662;-71
2021/12/02 04:58:38;;;;;;;106.63;50.63;;;;;;;0.85;100.00;94244.50;5132495;27;20564;-71
2021/12/02 05:01:06;;;;;;;110.20;55.07;;;;;;;0.96;100.00;94253.53;5132623;27;20195;-70
2021/12/02 05:03:36;;;;;;;116.60;56.73;;;;;;;0.88;100.00;94221.13;5132304;27;20205;-72
2021/12/02 05:06:04;;;;;;;119.80;59.03;;;;;;;1.00;100.00;94242.81;5132617;27;20207;-71
2021/12/02 05:08:35;;;;;;;121.10;60.70;;;;;;;0.96;100.00;94238.19;5132618;27;20211;-70
2021/12/02 05:11:04;;;;;;;137.63;64.50;;;;;;;0.77;100.00;94241.19;5132693;27;20208;-73
2021/12/02 05:13:32;;;;;;;129.87;63.03;;;;;;;0.86;100.00;94230.75;5130111;27;20623;-76
2021/12/02 05:16:02;;;;;;;169.37;85.53;;;;;;;0.80;100.00;94244.22;5132871;27;20238;-77
2021/12/02 05:18:30;;;;;;;201.27;101.10;;;;;;;0.76;100.00;94229.34;5133042;27;20207;-75
2021/12/02 05:21:00;;;;;;;171.00;87.00;;;;;;;0.81;100.00;94233.00;5133346;27;20219;-74
2021/12/02 05:23:29;;;;;;;165.10;87.00;;;;;;;0.82;100.00;94229.47;5127402;27;20204;-76
2021/12/02 05:26:00;;;;;;;175.17;88.33;;;;;;;0.87;100.00;94241.75;5131431;27;20203;-75
2021/12/02 05:28:29;;;;;;;167.40;87.23;;;;;;;0.83;100.00;94240.50;5132286;27;20220;-74
2021/12/02 05:30:57;;;;;;;202.20;99.57;;;;;;;0.86;100.00;94240.97;5132933;27;20300;-76
2021/12/02 05:33:25;;;;;;;185.73;91.73;;;;;;;0.86;100.00;94233.31;5132512;27;20810;-75
2021/12/02 05:35:53;;;;;;;133.33;67.73;;;;;;;0.86;100.00;94230.75;5132191;27;20960;-74
2021/12/02 05:38:20;;;;;;;123.53;58.97;;;;;;;0.87;100.00;94226.41;5132357;27;20209;-74
2021/12/02 05:40:56;;;;;;;139.17;68.57;;;;;;;0.83;100.00;94223.41;5126962;27;20207;-74
2021/12/02 05:43:47;;;;;;;142.80;73.30;;;;;;;0.84;100.00;94234.41;5125403;27;20199;-74
2021/12/02 05:46:16;;;;;;;158.33;80.50;;;;;;;0.88;100.00;94238.25;5132099;27;20210;-75
2021/12/02 05:48:44;;;;;;;152.47;80.67;;;;;;;0.87;100.00;94241.75;5132707;27;20316;-75
2021/12/02 05:51:22;;;;;;;150.07;77.57;;;;;;;0.89;100.00;94243.19;5131843;27;20240;-75
2021/12/02 05:53:49;;;;;;;157.93;78.03;;;;;;;0.90;100.00;94239.66;5131513;27;20211;-75
2021/12/02 05:56:17;;;;;;;151.53;77.43;;;;;;;0.88;100.00;94246.72;5132134;27;20282;-76
2021/12/02 05:58:46;;;;;;;153.33;75.33;;;;;;;0.87;100.00;94246.88;5131820;27;20196;-76
2021/12/02 06:01:14;;;;;;;157.70;78.77;;;;;;;0.93;100.00;94248.75;5127362;27;20193;-79
2021/12/02 06:03:44;;;;;;;142.40;73.50;;;;;;;1.00;100.00;94244.56;5132115;27;20243;-75
2021/12/02 06:06:14;;;;;;;194.03;91.07;;;;;;;0.99;100.00;94240.41;5132172;27;20353;-76
2021/12/02 06:08:42;;;;;;;252.30;115.10;;;;;;;1.01;100.00;94238.50;5132684;27;20299;-79
2021/12/02 06:11:10;;;;;;;246.47;113.80;;;;;;;1.04;100.00;94250.91;5132159;27;20207;-79
2021/12/02 06:13:41;;;;;;;271.83;128.07;;;;;;;1.05;100.00;94248.19;5129239;27;20214;-77
2021/12/02 06:16:10;;;;;;;253.27;123.27;;;;;;;0.96;100.00;94236.41;5131970;27;20274;-80
2021/12/02 06:18:38;;;;;;;264.93;127.23;;;;;;;0.93;100.00;94244.44;5131273;27;20221;-76
2021/12/02 06:21:06;;;;;;;279.87;131.80;;;;;;;0.99;100.00;94242.97;5131448;27;20211;-74
2021/12/02 06:23:35;;;;;;;256.20;123.80;;;;;;;1.04;100.00;94246.59;5131007;27;20203;-73
2021/12/02 06:26:04;;;;;;;259.10;121.10;;;;;;;1.02;100.00;94253.66;5131440;27;20207;-74
2021/12/02 06:28:33;;;;;;;244.23;118.87;;;;;;;1.03;100.00;94254.44;5131404;27;20212;-74
2021/12/02 06:31:02;;;;;;;227.90;113.67;;;;;;;1.07;100.00;94251.38;5128536;27;20203;-74
2021/12/02 06:33:33;;;;;;;221.40;106.53;;;;;;;1.02;100.00;94255.41;5122694;27;20265;-75
2021/12/02 06:36:01;;;;;;;234.60;115.07;;;;;;;1.13;100.00;94267.81;5129783;27;20238;-74
2021/12/02 06:38:29;;;;;;;262.77;128.73;;;;;;;1.09;100.00;94252.03;5130162;27;20228;-76
2021/12/02 06:40:56;;;;;;;268.43;130.87;;;;;;;1.11;100.00;94264.63;5129413;27;20200;-74
2021/12/02 06:43:25;;;;;;;226.13;116.43;;;;;;;1.21;100.00;94251.63;5130061;27;20203;-75
2021/12/02 06:45:53;;;;;;;232.30;111.00;;;;;;;1.22;100.00;94255.75;5130970;27;20207;-74
2021/12/02 06:48:20;;;;;;;241.90;116.73;;;;;;;1.18;100.00;94257.88;5124321;27;20209;-75
2021/12/02 06:50:50;;;;;;;240.03;116.10;;;;;;;1.21;100.00;94249.06;5130357;27;20703;-76
2021/12/02 06:53:19;;;;;;;247.10;116.43;;;;;;;1.20;100.00;94257.69;5130112;27;20205;-76
2021/12/02 06:55:48;;;;;;;233.90;112.67;;;;;;;1.17;100.00;94243.47;5130375;27;20259;-76
2021/12/02 06:58:16;;;;;;;232.93;109.90;;;;;;;1.20;100.00;94255.13;5129166;27;20197;-74
2021/12/02 07:00:44;;;;;;;219.33;110.30;;;;;;;1.30;100.00;94259.03;5130041;27;20203;-74
2021/12/02 07:03:12;;;;;;;233.63;115.47;;;;;;;1.36;100.00;94253.25;5130062;27;20259;-74
2021/12/02 07:05:40;;;;;;;222.10;113.60;;;;;;;1.43;100.00;94253.34;5129903;27;20204;-75
2021/12/02 07:08:11;;;;;;;215.17;105.57;;;;;;;1.53;100.00;94251.38;5129386;27;20205;-73
2021/12/02 07:10:41;;;;;;;222.43;111.30;;;;;;;1.56;100.00;94251.81;5129701;27;20223;-73
2021/12/02 07:13:09;;;;;;;220.97;109.63;;;;;;;1.56;100.00;94248.44;5130134;27;20201;-72
2021/12/02 07:15:42;;;;;;;212.60;108.60;;;;;;;1.66;100.00;94249.00;5130056;27;20233;-73
2021/12/02 07:18:15;;;;;;;212.80;109.13;;;;;;;1.76;100.00;94253.88;5122792;27;20189;-73
2021/12/02 07:20:46;;;;;;;226.97;109.73;;;;;;;1.84;100.00;94246.94;5126385;27;20198;-75
2021/12/02 07:23:16;;;;;;;229.57;109.90;;;;;;;1.89;100.00;94244.63;5128574;27;20196;-74
2021/12/02 07:25:45;;;;;;;187.60;97.37;;;;;;;1.91;100.00;94247.81;5129834;27;20202;-76
2021/12/02 07:28:15;;;;;;;201.47;105.83;;;;;;;1.90;100.00;94246.22;5130158;27;20437;-75
2021/12/02 07:30:45;;;;;;;198.23;100.93;;;;;;;1.94;100.00;94229.50;5129038;28;20231;-75
2021/12/02 07:33:14;;;;;;;150.57;77.60;;;;;;;1.91;100.00;94227.31;5129829;27;20617;-74
2021/12/02 07:35:44;;;;;;;152.67;76.83;;;;;;;2.02;100.00;94244.81;5129599;28;20546;-74
2021/12/02 07:38:14;;;;;;;153.33;76.60;;;;;;;2.07;100.00;94239.97;5129276;28;20267;-74
2021/12/02 07:40:44;;;;;;;145.77;73.37;;;;;;;2.12;100.00;94245.34;5125481;28;20574;-74
2021/12/02 07:43:11;;;;;;;136.07;69.27;;;;;;;2.18;100.00;94246.41;5129422;28;20212;-75
2021/12/02 07:45:39;;;;;;;135.07;66.97;;;;;;;2.20;100.00;94247.03;5130290;28;20199;-76
2021/12/02 07:48:10;;;;;;;129.87;66.97;;;;;;;2.29;100.00;94245.97;5129186;28;20223;-74
2021/12/02 07:50:38;;;;;;;129.93;66.43;;;;;;;2.39;100.00;94245.69;5129920;28;20311;-75
2021/12/02 07:53:07;;;;;;;111.00;59.13;;;;;;;2.40;100.00;94250.63;5129931;28;20226;-75
2021/12/02 07:55:38;;;;;;;121.30;60.43;;;;;;;2.47;100.00;94248.97;5129801;28;20206;-75
2021/12/02 07:58:10;;;;;;;115.00;59.10;;;;;;;2.60;100.00;94261.13;5130308;28;20326;-74
2021/12/02 08:00:38;;;;;;;119.20;57.73;;;;;;;2.66;100.00;94255.28;5125258;28;20286;-74
2021/12/02 08:03:09;;;;;;;109.67;53.87;;;;;;;2.74;100.00;94255.97;5106138;28;20198;-75
2021/12/02 08:05:37;;;;;;;97.17;49.20;;;;;;;2.83;100.00;94254.09;5130413;28;20693;-74
2021/12/02 08:08:05;;;;;;;98.60;48.70;;;;;;;2.87;100.00;94252.78;5130659;28;20219;-73
2021/12/02 08:10:33;;;;;;;87.17;46.73;;;;;;;2.92;100.00;94247.88;5133156;27;20234;-74
2021/12/02 08:13:02;;;;;;;81.27;42.53;;;;;;;3.02;100.00;94250.97;5134999;27;20196;-74
2021/12/02 08:15:32;;;;;;;53.73;31.43;;;;;;;3.19;100.00;94248.97;5126897;27;20356;-74
2021/12/02 08:18:01;;;;;;;51.37;27.20;;;;;;;3.27;100.00;94241.94;5133770;27;20203;-75
2021/12/02 08:20:31;;;;;;;47.70;24.13;;;;;;;3.26;100.00;94237.00;5132942;27;20203;-76
2021/12/02 08:23:00;;;;;;;42.60;23.57;;;;;;;3.41;100.00;94240.28;5133056;27;20196;-74
2021/12/02 08:25:30;;;;;;;37.53;21.23;;;;;;;3.55;100.00;94249.69;5134198;27;20202;-76
2021/12/02 08:28:00;;;;;;;32.13;19.23;;;;;;;3.65;100.00;94255.31;5133727;27;20662;-74
2021/12/02 08:30:30;;;;;;;30.10;14.30;;;;;;;3.76;98.46;94264.28;5127210;27;20228;-75
2021/12/02 08:33:00;;;;;;;21.37;10.63;;;;;;;3.70;97.08;94255.53;5127261;27;20199;-74
2021/12/02 08:35:29;;;;;;;30.60;14.23;;;;;;;3.78;97.78;94257.97;5133911;27;20264;-79
2021/12/02 08:38:00;;;;;;;28.90;17.20;;;;;;;3.80;97.46;94242.38;5133938;27;20211;-74
2021/12/02 08:40:32;;;;;;;32.37;18.30;;;;;;;3.90;97.67;94242.81;5127060;27;20183;-75
2021/12/02 08:43:01;;;;;;;31.87;19.37;;;;;;;4.01;96.83;94240.53;5127015;27;20206;-77
2021/12/02 08:45:31;;;;;;;31.77;19.47;;;;;;;4.04;95.55;94233.44;5133173;27;20231;-77
2021/12/02 08:48:02;;;;;;;34.90;18.97;;;;;;;4.21;94.07;94240.69;5133122;27;20199;-76
2021/12/02 08:50:30;;;;;;;35.87;19.00;;;;;;;4.24;93.88;94235.13;5133285;27;20747;-76
2021/12/02 08:52:59;;;;;;;35.63;19.20;;;;;;;4.29;94.13;94239.72;5131390;27;20272;-76
2021/12/02 08:55:30;;;;;;;36.33;19.40;;;;;;;4.37;94.30;94234.41;5133035;27;20225;-76
2021/12/02 08:57:59;;;;;;;32.27;19.40;;;;;;;4.47;93.45;94224.59;5133822;27;20231;-76
2021/12/02 09:00:33;;;;;;;34.70;20.30;;;;;;;4.61;92.46;94228.81;5133167;27;20202;-75
2021/12/02 09:03:04;;;;;;;38.00;20.07;;;;;;;4.74;92.18;94228.03;5132106;27;20199;-75
2021/12/02 09:05:32;;;;;;;36.77;21.53;;;;;;;4.85;92.10;94224.94;5126367;27;20199;-75
2021/12/02 09:08:00;;;;;;;47.87;26.40;;;;;;;4.78;91.78;94203.53;5126778;27;20734;-76
2021/12/02 09:10:28;;;;;;;46.03;27.07;;;;;;;4.88;91.82;94209.09;5126309;27;20254;-75
2021/12/02 09:12:58;;;;;;;46.57;26.00;;;;;;;4.87;90.88;94199.78;5126196;27;20290;-74
2021/12/02 09:15:26;;;;;;;49.33;24.80;;;;;;;5.00;90.38;94205.75;5126638;27;20224;-76
2021/12/02 09:17:54;;;;;;;37.13;20.13;;;;;;;5.05;91.26;94200.03;5132624;27;20203;-74
2021/12/02 09:20:24;;;;;;;27.47;16.60;;;;;;;5.10;88.52;94206.19;5131550;27;20202;-77
2021/12/02 09:22:52;;;;;;;27.60;15.70;;;;;;;5.08;88.27;94197.03;5131658;27;20278;-74
2021/12/02 09:25:19;;;;;;;27.37;15.40;;;;;;;5.13;87.79;94199.84;5119455;27;20602;-76
2021/12/02 09:27:47;;;;;;;26.50;15.33;;;;;;;5.21;87.85;94201.44;5132696;27;20235;-76
2021/12/02 09:30:17;;;;;;;29.77;16.73;;;;;;;5.17;87.28;94189.97;5130621;27;20224;-74
2021/12/02 09:32:46;;;;;;;33.40;18.43;;;;;;;5.19;87.29;94191.34;5132953;27;20203;-76
2021/12/02 09:35:16;;;;;;;31.00;17.80;;;;;;;5.26;88.05;94188.75;5132103;27;20720;-74
2021/12/02 09:37:47;;;;;;;31.07;16.77;;;;;;;5.28;87.72;94200.44;5132486;27;20207;-74
2021/12/02 09:40:16;;;;;;;28.87;17.23;;;;;;;5.38;87.70;94184.59;5132723;27;20258;-76
2021/12/02 09:42:45;;;;;;;32.53;17.47;;;;;;;5.42;87.35;94193.53;5131887;27;20206;-78
2021/12/02 09:45:15;;;;;;;29.83;16.93;;;;;;;5.70;85.75;94194.94;5132555;27;20266;-75
2021/12/02 09:47:46;;;;;;;30.33;16.23;;;;;;;6.80;83.30;94186.31;5131852;27;20291;-75
2021/12/02 09:50:19;;;;;;;23.97;15.20;;;;;;;8.79;75.95;94180.84;5132209;27;20228;-76
2021/12/02 09:52:51;;;;;;;23.60;15.70;;;;;;;10.94;66.14;94193.09;5132163;27;20264;-75
2021/12/02 09:55:24;;;;;;;31.80;16.77;;;;;;;12.91;58.42;94196.97;5131817;27;20295;-75
2021/12/02 09:57:55;;;;;;;24.97;15.67;;;;;;;14.71;54.01;94188.38;5132320;27;20203;-77
2021/12/02 10:00:35;;;;;;;28.00;16.23;;;;;;;16.64;48.78;94189.44;5132240;27;20192;-74
2021/12/02 10:03:06;;;;;;;29.37;15.63;;;;;;;18.36;43.40;94183.97;5125160;27;21032;-73
2021/12/02 10:05:39;;;;;;;26.67;16.57;;;;;;;19.45;40.24;94187.56;5125079;27;20641;-74
2021/12/02 10:08:12;;;;;;;29.20;17.13;;;;;;;20.19;36.64;94187.50;5131836;27;20195;-73
2021/12/02 10:10:52;;;;;;;31.70;18.07;;;;;;;21.38;34.63;94174.25;5131222;27;20267;-73
2021/12/02 10:13:26;;;;;;;26.00;18.40;;;;;;;22.07;32.99;94169.56;5124853;27;20316;-74
2021/12/02 10:16:09;;;;;;;31.00;19.80;;;;;;;22.23;31.27;94175.25;5131264;27;20593;-74
2021/12/02 10:18:43;;;;;;;29.57;18.43;;;;;;;21.74;31.99;94168.16;5131287;27;20280;-73
2021/12/02 10:21:20;;;;;;;25.50;17.23;;;;;;;21.83;31.38;94174.31;5125226;27;20605;-74
2021/12/02 10:23:50;;;;;;;27.37;16.87;;;;;;;22.01;31.09;94160.16;5131074;27;20199;-74
2021/12/02 10:26:20;;;;;;;24.97;16.70;;;;;;;22.61;29.88;94163.97;5130602;27;20282;-74
2021/12/02 10:28:51;;;;;;;22.25;15.38;;;;;;;22.79;29.61;94166.72;5130611;27;20288;-75
2021/12/02 10:31:22;;;;;;;23.38;15.45;;;;;;;22.77;29.83;94166.25;5130809;27;20254;-74
2021/12/02 10:33:54;;;;;;;26.25;15.30;;;;;;;22.88;29.54;94154.28;5129381;27;20195;-73
2021/12/02 10:36:31;;;;;;;22.30;14.52;;;;;;;22.57;28.79;94155.03;5130387;27;20203;-74
2021/12/02 10:39:08;;;;;;;20.45;14.13;;;;;;;22.52;29.29;94147.22;5131320;27;20197;-74
2021/12/02 10:41:36;;;;;;;26.20;14.02;;;;;;;22.34;29.23;94150.88;5129885;27;20195;-74
2021/12/02 10:44:17;;;;;;;27.88;14.73;;;;;;;21.34;29.88;94138.91;5131140;27;20207;-74
2021/12/02 10:47:03;;;;;;;23.88;14.98;;;;;;;20.99;31.17;94144.88;5125553;27;20289;-74
2021/12/02 10:49:33;;;;;;;28.10;15.05;;;;;;;20.47;31.60;94129.50;5131223;27;20595;-75
2021/12/02 10:52:03;;;;;;;19.85;14.25;;;;;;;20.77;31.46;94115.75;5130676;27;20276;-75
2021/12/02 10:54:36;;;;;;;28.95;14.10;;;;;;;20.89;32.05;94116.03;5130639;27;20662;-74
2021/12/02 10:57:12;;;;;;;20.58;13.60;;;;;;;21.36;30.49;94112.16;5130877;27;20678;-74
2021/12/02 10:59:44;;;;;;;26.60;14.07;;;;;;;21.76;30.36;94110.47;5130430;27;20551;-74
2021/12/02 11:02:24;;;;;;;25.77;14.43;;;;;;;21.59;30.33;94115.63;5123467;27;20195;-74
2021/12/02 11:04:55;;;;;;;24.85;13.88;;;;;;;21.72;30.30;94104.19;5128013;27;20667;-79
2021/12/02 11:07:27;;;;;;;25.63;13.13;;;;;;;21.62;30.55;94088.56;5131077;27;20202;-74
2021/12/02 11:09:59;;;;;;;22.23;13.32;;;;;;;21.14;30.51;94083.81;5130402;27;20236;-74
2021/12/02 11:12:28;;;;;;;20.52;13.13;;;;;;;21.27;30.57;94076.94;5123696;27;20219;-73
2021/12/02 11:15:11;;;;;;;22.65;12.90;;;;;;;21.73;30.44;94081.97;5130388;27;20219;-74
2021/12/02 11:17:43;;;;;;;22.40;13.50;;;;;;;22.19;29.62;94085.06;5130618;27;20203;-73
2021/12/02 11:20:17;;;;;;;25.80;13.90;;;;;;;22.78;28.52;94078.47;5130399;27;20218;-73
2021/12/02 11:22:45;;;;;;;20.55;14.02;;;;;;;23.23;28.38;94073.75;5123459;27;20221;-72
2021/12/02 11:25:16;;;;;;;25.13;12.20;;;;;;;23.49;27.66;94084.41;5130313;27;20203;-72
2021/12/02 11:27:46;;;;;;;40.97;13.30;;;;;;;23.53;27.58;94072.03;5124392;27;20204;-73
2021/12/02 11:30:21;;;;;;;21.45;12.27;;;;;;;23.46;27.52;94075.16;5129982;27;20652;-73
2021/12/02 11:32:52;;;;;;;17.70;12.45;;;;;;;22.88;27.22;94080.84;5130339;28;20282;-73
2021/12/02 11:35:24;;;;;;;22.05;13.48;;;;;;;22.67;28.61;94076.41;5130261;28;20195;-74